createdAt,value
2023-03-29T00:00:57.325Z,-0.60
2023-03-29T00:03:59.269Z,-0.55
2023-03-29T00:07:00.351Z,-0.77
2023-03-29T00:10:00.298Z,-0.67
2023-03-29T00:13:00.370Z,-0.68
2023-03-29T00:16:00.338Z,-0.66
2023-03-29T00:19:00.333Z,-0.77
2023-03-29T00:22:00.352Z,-0.78
2023-03-29T00:25:00.314Z,-0.77
2023-03-29T00:28:00.327Z,-0.82
2023-03-29T00:31:00.568Z,-0.98
2023-03-29T00:34:00.333Z,-0.86
2023-03-29T00:37:04.313Z,-0.86
2023-03-29T00:40:04.354Z,-0.86
2023-03-29T00:43:04.309Z,-0.94
2023-03-29T00:46:04.365Z,-0.84
2023-03-29T00:49:06.290Z,-0.96
2023-03-29T00:52:06.314Z,-0.97
2023-03-29T00:55:08.308Z,-1.10
2023-03-29T00:58:09.338Z,-1.16
2023-03-29T01:01:17.349Z,-1.15
2023-03-29T01:04:30.326Z,-1.31
2023-03-29T01:07:35.370Z,-1.26
2023-03-29T01:10:45.298Z,-1.36
2023-03-29T01:14:17.309Z,-1.42
2023-03-29T01:17:17.334Z,-1.48
2023-03-29T01:20:20.305Z,-1.44
2023-03-29T01:23:44.306Z,-1.54
2023-03-29T01:26:58.318Z,-1.49
2023-03-29T01:30:03.291Z,-1.47
2023-03-29T01:33:06.421Z,-1.44
2023-03-29T01:36:41.340Z,-1.49
2023-03-29T01:39:41.349Z,-1.49
2023-03-29T01:42:45.311Z,-1.56
2023-03-29T01:46:30.386Z,-1.65
2023-03-29T01:49:56.330Z,-1.70
2023-03-29T01:53:01.338Z,-1.73
2023-03-29T01:56:05.289Z,-1.79
2023-03-29T01:59:09.371Z,-1.74
2023-03-29T02:02:12.337Z,-1.77
2023-03-29T02:05:12.321Z,-1.78
2023-03-29T02:08:14.335Z,-1.94
2023-03-29T02:11:14.304Z,-2.03
2023-03-29T02:14:14.306Z,-2.00
2023-03-29T02:17:35.363Z,-2.18
2023-03-29T02:20:36.323Z,-2.14
2023-03-29T02:23:47.308Z,-2.11
2023-03-29T02:26:47.294Z,-2.16
2023-03-29T02:29:47.314Z,-1.96
2023-03-29T02:32:52.305Z,-1.96
2023-03-29T02:36:15.337Z,-2.04
2023-03-29T02:39:16.298Z,-2.08
2023-03-29T02:42:17.291Z,-1.99
2023-03-29T02:45:17.334Z,-2.13
2023-03-29T02:48:19.343Z,-1.92
2023-03-29T02:51:25.299Z,-1.56
2023-03-29T02:54:33.321Z,-1.51
2023-03-29T02:57:35.323Z,-1.57
2023-03-29T03:00:35.307Z,-1.51
2023-03-29T03:03:35.394Z,-1.55
2023-03-29T03:06:35.295Z,-1.63
2023-03-29T03:09:36.339Z,-1.64
2023-03-29T03:12:36.316Z,-1.63
2023-03-29T03:15:37.366Z,-1.60
2023-03-29T03:18:37.336Z,-1.63
2023-03-29T03:21:37.311Z,-1.81
2023-03-29T03:24:39.290Z,-1.43
2023-03-29T03:27:40.328Z,-1.59
2023-03-29T03:30:41.305Z,-1.24
2023-03-29T03:33:45.293Z,-1.30
2023-03-29T03:36:46.302Z,-1.38
2023-03-29T03:39:46.288Z,-1.22
2023-03-29T03:42:46.282Z,-1.17
2023-03-29T03:45:46.390Z,-1.12
2023-03-29T03:48:46.297Z,-1.30
2023-03-29T03:51:50.392Z,-1.23
2023-03-29T03:54:53.300Z,-1.10
2023-03-29T03:57:54.266Z,-1.23
2023-03-29T04:00:54.362Z,-1.31
2023-03-29T04:03:56.483Z,-1.33
2023-03-29T04:06:57.262Z,-1.38
2023-03-29T04:09:59.274Z,-1.20
2023-03-29T04:13:00.312Z,-1.48
2023-03-29T04:16:01.893Z,-1.41
2023-03-29T04:19:02.301Z,-1.13
2023-03-29T04:22:02.290Z,-0.89
2023-03-29T04:25:02.281Z,-1.28
2023-03-29T04:28:04.290Z,-1.29
2023-03-29T04:34:04.275Z,-1.29
2023-03-29T04:37:05.334Z,-1.47
2023-03-29T04:40:07.305Z,-1.54
2023-03-29T04:43:10.294Z,-1.59
2023-03-29T04:46:14.366Z,-1.70
2023-03-29T04:49:15.293Z,-1.56
2023-03-29T04:52:15.321Z,-1.27
2023-03-29T04:55:15.334Z,-1.28
2023-03-29T04:58:16.347Z,-1.11
2023-03-29T05:01:16.309Z,-1.15
2023-03-29T05:04:16.337Z,-1.22
2023-03-29T05:07:17.335Z,-1.10
2023-03-29T05:10:18.280Z,-1.04
2023-03-29T05:13:18.285Z,-0.94
2023-03-29T05:16:18.386Z,-0.87
2023-03-29T05:19:20.324Z,-0.79
2023-03-29T05:22:20.312Z,-0.81
2023-03-29T05:25:21.308Z,-0.64
2023-03-29T05:28:21.278Z,-0.48
2023-03-29T05:31:21.353Z,-0.31
2023-03-29T05:34:21.285Z,-0.27
2023-03-29T05:37:22.305Z,-0.23
2023-03-29T05:40:23.285Z,-0.21
2023-03-29T05:43:24.265Z,-0.29
2023-03-29T05:46:24.327Z,0.02
2023-03-29T05:49:24.308Z,0.10
2023-03-29T05:52:25.307Z,0.24
2023-03-29T05:55:19.345Z,0.22
2023-03-29T05:58:19.343Z,0.33
2023-03-29T06:01:25.328Z,0.42
2023-03-29T06:04:25.445Z,0.49
2023-03-29T06:07:26.291Z,0.42
2023-03-29T06:10:27.433Z,0.48
2023-03-29T06:13:29.315Z,0.49
2023-03-29T06:16:30.441Z,0.59
2023-03-29T06:19:30.573Z,0.71
2023-03-29T06:25:26.323Z,0.78
2023-03-29T06:28:27.291Z,0.78
2023-03-29T06:31:27.346Z,0.89
2023-03-29T06:34:27.268Z,0.98
2023-03-29T06:37:28.367Z,1.07
2023-03-29T06:40:34.337Z,1.15
2023-03-29T06:43:34.303Z,1.32
2023-03-29T06:46:36.340Z,1.31
2023-03-29T06:49:36.288Z,1.60
2023-03-29T06:52:36.293Z,1.91
2023-03-29T06:55:38.297Z,2.11
2023-03-29T06:58:39.279Z,2.10
2023-03-29T07:01:44.405Z,2.14
2023-03-29T07:04:45.465Z,1.95
2023-03-29T07:08:01.305Z,2.37
2023-03-29T07:11:05.480Z,2.34
2023-03-29T07:14:05.319Z,2.25
2023-03-29T07:17:07.286Z,2.30
2023-03-29T07:20:08.376Z,2.34
2023-03-29T07:23:08.334Z,2.24
2023-03-29T07:26:09.266Z,3.04
2023-03-29T07:29:09.315Z,4.12
2023-03-29T07:32:09.318Z,5.42
2023-03-29T07:35:11.289Z,5.92
2023-03-29T07:38:12.280Z,6.57
2023-03-29T07:41:12.281Z,7.41
2023-03-29T07:44:18.022Z,7.02
2023-03-29T07:47:17.270Z,5.91
2023-03-29T07:50:18.275Z,6.05
2023-03-29T07:53:19.309Z,6.45
2023-03-29T07:56:20.403Z,6.45
2023-03-29T07:59:26.300Z,8.11
2023-03-29T08:02:26.332Z,7.79
2023-03-29T08:05:39.878Z,6.80
2023-03-29T08:08:34.284Z,8.85
2023-03-29T08:11:14.141Z,8.09
2023-03-29T08:14:04.296Z,9.61
2023-03-29T08:16:52.353Z,9.47
2023-03-29T08:19:53.333Z,8.64
2023-03-29T08:22:55.281Z,9.61
2023-03-29T08:25:55.289Z,9.34
2023-03-29T08:29:07.035Z,7.91
2023-03-29T08:32:07.349Z,9.85
2023-03-29T08:35:11.317Z,10.20
2023-03-29T08:38:12.267Z,9.81
2023-03-29T08:41:12.524Z,9.58
2023-03-29T08:44:37.731Z,9.08
2023-03-29T08:48:07.371Z,9.93
2023-03-29T08:51:17.337Z,9.73
2023-03-29T08:54:25.376Z,11.60
2023-03-29T08:57:34.280Z,12.72
2023-03-29T09:00:53.326Z,11.75
2023-03-29T09:03:59.364Z,11.75
2023-03-29T09:07:00.316Z,12.14
2023-03-29T09:12:56.310Z,10.37
2023-03-29T09:16:10.366Z,9.17
2023-03-29T09:19:21.701Z,9.71
2023-03-29T09:22:45.426Z,10.04
2023-03-29T09:26:00.339Z,9.31
2023-03-29T09:29:30.268Z,8.58
2023-03-29T09:33:12.438Z,9.17
2023-03-29T09:36:39.327Z,8.97
2023-03-29T09:39:40.323Z,8.94
2023-03-29T09:42:42.327Z,8.75
2023-03-29T09:45:41.116Z,7.66
2023-03-29T09:48:45.372Z,7.70
2023-03-29T09:51:47.311Z,8.32
2023-03-29T09:54:47.258Z,7.19
2023-03-29T09:57:51.352Z,7.59
2023-03-29T10:00:55.421Z,7.03
2023-03-29T10:03:56.283Z,8.48
2023-03-29T10:06:58.286Z,8.84
2023-03-29T10:09:59.287Z,8.69
2023-03-29T10:13:04.317Z,9.47
2023-03-29T10:16:32.311Z,9.25
2023-03-29T10:19:35.363Z,12.74
2023-03-29T10:22:40.292Z,12.65
2023-03-29T10:25:43.310Z,11.35
2023-03-29T10:28:46.905Z,12.30
2023-03-29T10:31:49.295Z,13.98
2023-03-29T10:34:49.288Z,13.19
2023-03-29T10:37:53.351Z,12.17
2023-03-29T10:41:30.239Z,11.53
2023-03-29T10:44:49.284Z,12.41
2023-03-29T10:47:49.354Z,10.33
2023-03-29T10:50:53.369Z,11.63
2023-03-29T10:53:54.313Z,11.28
2023-03-29T10:57:01.354Z,12.04
2023-03-29T11:00:37.510Z,13.03
2023-03-29T11:04:06.369Z,12.43
2023-03-29T11:07:19.339Z,14.20
2023-03-29T11:10:37.347Z,12.71
2023-03-29T11:13:46.293Z,13.26
2023-03-29T11:17:01.334Z,13.02
2023-03-29T11:20:44.332Z,12.67
2023-03-29T11:24:14.303Z,12.34
2023-03-29T11:27:52.329Z,14.67
2023-03-29T11:30:57.387Z,14.45
2023-03-29T11:34:12.343Z,14.76
2023-03-29T11:37:28.364Z,14.12
2023-03-29T11:40:47.528Z,16.13
2023-03-29T11:44:11.023Z,15.52
2023-03-29T11:47:13.449Z,12.65
2023-03-29T11:50:23.006Z,14.64
2023-03-29T11:53:30.360Z,15.18
2023-03-29T11:56:40.463Z,13.89
2023-03-29T11:59:46.322Z,15.03
2023-03-29T12:03:06.428Z,14.61
2023-03-29T12:06:15.290Z,15.64
2023-03-29T12:09:35.332Z,14.70
2023-03-29T12:13:00.277Z,15.12
2023-03-29T12:19:33.322Z,13.41
2023-03-29T12:22:33.345Z,14.31
2023-03-29T12:25:38.368Z,12.87
2023-03-29T12:29:13.304Z,12.61
2023-03-29T12:32:24.376Z,12.98
2023-03-29T12:35:41.337Z,13.90
2023-03-29T12:38:43.326Z,12.90
2023-03-29T12:41:55.332Z,12.98
2023-03-29T12:45:00.400Z,11.79
2023-03-29T12:48:02.358Z,11.52
2023-03-29T12:51:09.312Z,11.86
2023-03-29T12:54:18.366Z,11.67
2023-03-29T12:57:41.345Z,12.34
2023-03-29T13:00:46.326Z,12.12
2023-03-29T13:04:01.403Z,13.27
2023-03-29T13:07:02.295Z,12.90
2023-03-29T13:10:09.349Z,12.85
2023-03-29T13:13:09.323Z,12.80
2023-03-29T13:16:09.390Z,12.00
2023-03-29T13:19:21.348Z,12.36
2023-03-29T13:22:36.345Z,11.33
2023-03-29T13:25:54.336Z,11.60
2023-03-29T13:29:10.314Z,12.09
2023-03-29T13:32:34.327Z,11.91
2023-03-29T13:35:34.405Z,11.72
2023-03-29T13:38:28.838Z,12.35
2023-03-29T13:41:40.333Z,10.81
2023-03-29T13:48:35.366Z,11.29
2023-03-29T13:49:25.067Z,11.63
2023-03-29T13:51:42.313Z,10.83
2023-03-29T13:54:46.320Z,10.46
2023-03-29T13:57:56.372Z,9.57
2023-03-29T14:01:06.360Z,9.48
2023-03-29T14:04:12.355Z,9.34
2023-03-29T14:07:13.366Z,8.48
2023-03-29T14:10:13.322Z,8.55
2023-03-29T14:13:13.333Z,8.05
2023-03-29T14:16:20.391Z,7.57
2023-03-29T14:19:27.363Z,8.06
2023-03-29T14:22:30.361Z,7.92
2023-03-29T14:25:32.366Z,7.96
2023-03-29T14:28:40.352Z,7.79
2023-03-29T14:31:45.371Z,7.62
2023-03-29T14:34:45.314Z,7.07
2023-03-29T14:37:45.305Z,7.13
2023-03-29T14:40:45.327Z,7.14
2023-03-29T14:43:45.364Z,7.16
2023-03-29T14:46:45.443Z,7.11
2023-03-29T14:49:45.315Z,7.18
2023-03-29T14:52:47.217Z,6.92
2023-03-29T14:55:47.338Z,6.97
2023-03-29T14:58:49.345Z,6.68
2023-03-29T15:01:57.374Z,6.43
2023-03-29T15:04:57.321Z,6.29
2023-03-29T15:07:57.371Z,6.35
2023-03-29T15:10:57.313Z,6.42
2023-03-29T15:13:50.413Z,6.44
2023-03-29T15:16:56.307Z,6.44
2023-03-29T15:19:56.337Z,6.48
2023-03-29T15:23:12.338Z,6.33
2023-03-29T15:26:20.322Z,6.17
2023-03-29T15:29:30.293Z,6.14
2023-03-29T15:32:35.376Z,6.03
2023-03-29T15:35:37.312Z,6.00
2023-03-29T15:38:43.937Z,5.91
2023-03-29T15:41:45.349Z,5.83
2023-03-29T15:44:51.388Z,5.79
2023-03-29T15:47:51.354Z,5.62
2023-03-29T15:50:51.334Z,5.69
2023-03-29T15:53:51.297Z,5.62
2023-03-29T15:56:55.684Z,5.60
2023-03-29T15:59:56.315Z,5.47
2023-03-29T16:03:05.327Z,5.50
2023-03-29T16:06:05.514Z,5.20
2023-03-29T16:09:05.314Z,5.39
2023-03-29T16:12:07.302Z,5.34
2023-03-29T16:15:07.355Z,5.29
2023-03-29T16:18:07.430Z,5.27
2023-03-29T16:21:08.008Z,5.22
2023-03-29T16:24:08.317Z,5.06
2023-03-29T16:27:09.302Z,4.99
2023-03-29T16:30:09.352Z,4.90
2023-03-29T16:33:12.351Z,4.75
2023-03-29T16:36:12.541Z,4.80
2023-03-29T16:39:12.341Z,4.70
2023-03-29T16:42:12.344Z,4.65
2023-03-29T16:45:12.321Z,4.57
2023-03-29T16:48:12.339Z,4.47
2023-03-29T16:51:12.345Z,4.39
2023-03-29T16:54:12.311Z,4.25
2023-03-29T16:57:13.451Z,4.13
2023-03-29T17:00:13.296Z,4.08
2023-03-29T17:03:13.423Z,3.92
2023-03-29T17:06:13.342Z,3.66
2023-03-29T17:09:14.348Z,3.54
2023-03-29T17:12:14.350Z,3.57
2023-03-29T17:15:14.363Z,3.29
2023-03-29T17:18:15.341Z,3.34
2023-03-29T17:21:15.286Z,3.34
2023-03-29T17:24:16.350Z,3.30
2023-03-29T17:27:16.297Z,3.21
2023-03-29T17:30:17.324Z,3.14
2023-03-29T17:33:19.828Z,3.06
2023-03-29T17:36:21.340Z,3.00
2023-03-29T17:39:22.310Z,2.78
2023-03-29T17:42:22.351Z,2.82
2023-03-29T17:45:23.301Z,2.79
2023-03-29T17:48:23.361Z,2.71
2023-03-29T17:51:23.304Z,2.63
2023-03-29T17:54:23.361Z,2.65
2023-03-29T17:57:23.361Z,2.58
2023-03-29T18:00:27.377Z,2.55
2023-03-29T18:03:27.430Z,2.63
2023-03-29T18:06:28.308Z,2.52
2023-03-29T18:09:30.235Z,2.41
2023-03-29T18:12:30.319Z,2.45
2023-03-29T18:15:30.307Z,2.37
2023-03-29T18:18:30.289Z,2.34
2023-03-29T18:21:32.324Z,2.27
2023-03-29T18:24:32.329Z,2.19
2023-03-29T18:27:32.348Z,2.20
2023-03-29T18:30:32.310Z,2.23
2023-03-29T18:33:32.356Z,2.10
2023-03-29T18:36:32.336Z,2.14
2023-03-29T18:39:32.323Z,1.94
2023-03-29T18:42:32.347Z,1.87
2023-03-29T18:45:32.346Z,1.81
2023-03-29T18:48:32.357Z,1.79
2023-03-29T18:51:34.328Z,1.87
2023-03-29T18:54:34.322Z,1.70
2023-03-29T18:57:34.458Z,1.84
2023-03-29T19:00:34.324Z,1.80
2023-03-29T19:03:34.524Z,1.80
2023-03-29T19:06:34.339Z,1.79
2023-03-29T19:09:34.355Z,1.74
2023-03-29T19:12:34.342Z,1.64
2023-03-29T19:15:35.334Z,1.71
2023-03-29T19:18:35.348Z,1.63
2023-03-29T19:21:35.368Z,1.66
2023-03-29T19:24:35.342Z,1.54
2023-03-29T19:27:35.340Z,1.61
2023-03-29T19:30:36.383Z,1.55
2023-03-29T19:33:36.386Z,1.52
2023-03-29T19:36:36.354Z,1.52
2023-03-29T19:39:29.811Z,1.57
2023-03-29T19:42:29.322Z,1.52
2023-03-29T19:45:30.321Z,1.50
2023-03-29T19:48:31.378Z,1.39
2023-03-29T19:51:33.329Z,1.32
2023-03-29T19:54:33.293Z,1.31
2023-03-29T19:57:33.410Z,1.07
2023-03-29T20:00:34.409Z,1.26
2023-03-29T20:03:34.411Z,1.15
2023-03-29T20:06:34.305Z,1.22
2023-03-29T20:09:34.444Z,1.18
2023-03-29T20:12:34.281Z,1.13
2023-03-29T20:15:34.319Z,1.08
2023-03-29T20:18:34.317Z,0.98
2023-03-29T20:21:34.298Z,1.03
2023-03-29T20:24:35.309Z,1.06
2023-03-29T20:27:36.302Z,0.97
2023-03-29T20:30:36.336Z,1.09
2023-03-29T20:33:36.323Z,1.09
2023-03-29T20:36:37.421Z,1.03
2023-03-29T20:39:38.315Z,1.20
2023-03-29T20:42:41.296Z,1.01
2023-03-29T20:45:50.108Z,1.21
2023-03-29T20:49:01.281Z,1.20
2023-03-29T20:52:10.281Z,1.09
2023-03-29T20:55:10.345Z,1.06
2023-03-29T20:58:10.355Z,0.92
2023-03-29T21:01:11.441Z,0.99
2023-03-29T21:04:11.299Z,1.03
2023-03-29T21:07:13.326Z,0.99
2023-03-29T21:10:14.356Z,0.93
2023-03-29T21:13:14.310Z,0.76
2023-03-29T21:16:14.463Z,0.78
2023-03-29T21:19:14.331Z,0.80
2023-03-29T21:22:14.330Z,0.71
2023-03-29T21:25:14.280Z,0.57
2023-03-29T21:28:14.272Z,0.86
2023-03-29T21:31:17.376Z,0.86
2023-03-29T21:34:17.298Z,0.79
2023-03-29T21:37:17.321Z,0.69
2023-03-29T21:40:19.291Z,0.74
2023-03-29T21:43:19.340Z,0.57
2023-03-29T21:46:19.286Z,0.66
2023-03-29T21:49:19.331Z,0.87
2023-03-29T21:52:19.324Z,0.85
2023-03-29T21:55:19.304Z,0.82
2023-03-29T21:58:19.337Z,0.82
2023-03-29T22:01:19.402Z,0.78
2023-03-29T22:04:33.144Z,0.80
2023-03-29T22:07:36.289Z,0.79
2023-03-29T22:10:36.333Z,0.79
2023-03-29T22:13:38.304Z,0.74
2023-03-29T22:16:38.356Z,0.67
2023-03-29T22:19:38.323Z,0.61
2023-03-29T22:22:38.325Z,0.64
2023-03-29T22:25:38.340Z,0.65
2023-03-29T22:28:38.354Z,0.62
2023-03-29T22:31:39.484Z,0.36
2023-03-29T22:34:39.341Z,0.39
2023-03-29T22:37:39.327Z,0.51
2023-03-29T22:40:40.347Z,0.47
2023-03-29T22:43:40.325Z,0.32
2023-03-29T22:46:40.308Z,0.37
2023-03-29T22:49:40.289Z,0.40
2023-03-29T22:52:41.308Z,0.42
2023-03-29T22:55:41.328Z,0.44
2023-03-29T22:58:41.282Z,0.41
2023-03-29T23:01:41.356Z,0.42
2023-03-29T23:04:42.409Z,0.31
2023-03-29T23:07:43.321Z,0.21
2023-03-29T23:10:43.311Z,0.32
2023-03-29T23:13:43.326Z,0.30
2023-03-29T23:16:44.322Z,0.25
2023-03-29T23:19:44.307Z,0.05
2023-03-29T23:22:46.307Z,0.20
2023-03-29T23:25:46.314Z,0.07
2023-03-29T23:28:47.274Z,0.22
2023-03-29T23:31:47.353Z,0.22
2023-03-29T23:34:47.330Z,0.13
2023-03-29T23:37:47.277Z,0.19
2023-03-29T23:40:47.321Z,0.17
2023-03-29T23:43:49.318Z,0.18
2023-03-29T23:46:49.367Z,0.18
2023-03-29T23:49:52.337Z,0.16
2023-03-29T23:52:53.326Z,-0.06
2023-03-29T23:55:54.272Z,-0.01
2023-03-29T23:58:54.341Z,0.00
